createdAt,value
2022-11-06T00:01:45.626Z,7.28
2022-11-06T00:04:12.477Z,7.29
2022-11-06T00:06:39.297Z,7.30
2022-11-06T00:09:09.410Z,7.28
2022-11-06T00:11:36.395Z,7.26
2022-11-06T00:14:04.095Z,7.26
2022-11-06T00:16:30.972Z,7.26
2022-11-06T00:19:01.489Z,7.25
2022-11-06T00:21:30.634Z,7.23
2022-11-06T00:24:00.444Z,7.19
2022-11-06T00:26:28.787Z,7.19
2022-11-06T00:28:56.155Z,7.19
2022-11-06T00:31:28.935Z,7.15
2022-11-06T00:33:57.716Z,7.15
2022-11-06T00:36:26.322Z,7.16
2022-11-06T00:38:57.426Z,7.16
2022-11-06T00:41:25.560Z,7.14
2022-11-06T00:44:02.830Z,7.12
2022-11-06T00:46:30.466Z,7.12
2022-11-06T00:48:57.316Z,7.08
2022-11-06T00:51:35.318Z,7.09
2022-11-06T00:54:04.632Z,7.11
2022-11-06T00:56:32.272Z,7.10
2022-11-06T00:59:00.755Z,7.10
2022-11-06T01:01:30.735Z,7.10
2022-11-06T01:04:00.379Z,7.08
2022-11-06T01:06:30.232Z,7.06
2022-11-06T01:08:57.511Z,7.06
2022-11-06T01:11:46.570Z,7.07
2022-11-06T01:14:18.633Z,7.09
2022-11-06T01:16:47.721Z,7.07
2022-11-06T01:19:16.522Z,7.06
2022-11-06T01:21:45.601Z,7.02
2022-11-06T01:24:15.696Z,7.01
2022-11-06T01:27:04.875Z,7.03
2022-11-06T01:29:29.960Z,7.02
2022-11-06T01:31:56.803Z,6.99
2022-11-06T01:34:23.624Z,6.97
2022-11-06T01:36:50.505Z,6.98
2022-11-06T01:39:17.334Z,6.98
2022-11-06T01:41:47.884Z,6.96
2022-11-06T01:44:14.623Z,6.96
2022-11-06T01:46:41.524Z,6.96
2022-11-06T01:49:16.145Z,6.96
2022-11-06T01:51:56.365Z,6.95
2022-11-06T01:54:27.827Z,6.97
2022-11-06T01:56:57.516Z,6.94
2022-11-06T01:59:33.142Z,6.93
2022-11-06T02:02:00.044Z,6.92
2022-11-06T02:04:33.889Z,6.89
2022-11-06T02:07:03.267Z,6.90
2022-11-06T02:09:32.389Z,6.88
2022-11-06T02:12:07.377Z,6.85
2022-11-06T02:14:50.945Z,6.85
2022-11-06T02:17:36.277Z,6.84
2022-11-06T02:20:46.618Z,6.83
2022-11-06T02:23:41.009Z,6.80
2022-11-06T02:26:22.910Z,6.80
2022-11-06T02:29:15.939Z,6.77
2022-11-06T02:31:45.339Z,6.78
2022-11-06T02:34:16.702Z,6.74
2022-11-06T02:36:53.613Z,6.73
2022-11-06T02:39:24.431Z,6.71
2022-11-06T02:41:54.538Z,6.70
2022-11-06T02:44:26.848Z,6.70
2022-11-06T02:47:02.718Z,6.69
2022-11-06T02:49:40.094Z,6.66
2022-11-06T02:52:14.066Z,6.66
2022-11-06T02:54:46.244Z,6.67
2022-11-06T02:57:14.993Z,6.69
2022-11-06T03:00:09.482Z,6.66
2022-11-06T03:02:58.640Z,6.63
2022-11-06T03:05:37.199Z,6.63
2022-11-06T03:08:12.282Z,6.59
2022-11-06T03:10:47.558Z,6.59
2022-11-06T03:13:19.584Z,6.58
2022-11-06T03:16:03.144Z,6.54
2022-11-06T03:19:02.304Z,6.52
2022-11-06T03:21:57.256Z,6.52
2022-11-06T03:24:34.135Z,6.50
2022-11-06T03:27:10.254Z,6.48
2022-11-06T03:29:44.534Z,6.46
2022-11-06T03:32:33.153Z,6.45
2022-11-06T03:35:19.193Z,6.40
2022-11-06T03:38:07.385Z,6.35
2022-11-06T03:40:39.282Z,6.34
2022-11-06T03:43:11.159Z,6.28
2022-11-06T03:45:43.270Z,6.27
2022-11-06T03:48:21.067Z,6.27
2022-11-06T03:50:50.488Z,6.23
2022-11-06T03:53:25.344Z,6.21
2022-11-06T03:55:58.079Z,6.18
2022-11-06T03:58:31.272Z,6.15
2022-11-06T04:01:03.702Z,6.16
2022-11-06T04:03:36.280Z,6.16
2022-11-06T04:06:06.978Z,6.14
2022-11-06T04:08:35.198Z,6.14
2022-11-06T04:11:05.568Z,6.14
2022-11-06T04:13:35.756Z,6.12
2022-11-06T04:16:03.638Z,6.11
2022-11-06T04:18:30.540Z,6.12
2022-11-06T04:21:11.926Z,6.09
2022-11-06T04:24:25.743Z,6.10
2022-11-06T04:27:08.233Z,6.09
2022-11-06T04:30:04.940Z,6.07
2022-11-06T04:33:00.809Z,6.05
2022-11-06T04:35:35.266Z,6.05
2022-11-06T04:38:34.433Z,6.05
2022-11-06T04:41:28.508Z,6.03
2022-11-06T04:44:00.260Z,6.05
2022-11-06T04:46:33.788Z,6.06
2022-11-06T04:49:05.539Z,6.04
2022-11-06T04:51:35.977Z,6.08
2022-11-06T04:54:03.149Z,6.04
2022-11-06T04:56:35.066Z,6.01
2022-11-06T04:59:04.060Z,5.97
2022-11-06T05:01:31.342Z,5.97
2022-11-06T05:03:58.465Z,5.97
2022-11-06T05:06:29.601Z,5.98
2022-11-06T05:08:57.801Z,5.94
2022-11-06T05:11:25.088Z,5.97
2022-11-06T05:13:52.075Z,5.99
2022-11-06T05:16:18.960Z,5.98
2022-11-06T05:18:45.787Z,5.99
2022-11-06T05:21:12.600Z,5.98
2022-11-06T05:23:40.612Z,5.94
2022-11-06T05:26:08.240Z,5.96
2022-11-06T05:28:35.250Z,5.96
2022-11-06T05:31:02.090Z,5.87
2022-11-06T05:33:29.017Z,5.84
2022-11-06T05:35:55.882Z,5.80
2022-11-06T05:38:22.765Z,5.79
2022-11-06T05:40:49.564Z,5.79
2022-11-06T05:43:16.350Z,5.81
2022-11-06T05:45:43.137Z,5.80
2022-11-06T05:48:10.817Z,5.77
2022-11-06T05:50:37.809Z,5.75
2022-11-06T05:53:14.862Z,5.72
2022-11-06T05:55:41.636Z,5.72
2022-11-06T05:58:08.512Z,5.73
2022-11-06T06:00:35.216Z,5.71
2022-11-06T06:03:02.499Z,5.74
2022-11-06T06:05:29.668Z,5.75
2022-11-06T06:07:56.537Z,5.72
2022-11-06T06:10:24.159Z,5.71
2022-11-06T06:12:51.182Z,5.72
2022-11-06T06:15:18.287Z,5.73
2022-11-06T06:17:45.126Z,5.75
2022-11-06T06:20:12.404Z,5.75
2022-11-06T06:22:39.436Z,5.72
2022-11-06T06:25:14.690Z,5.72
2022-11-06T06:27:48.433Z,5.71
2022-11-06T06:30:15.179Z,5.71
2022-11-06T06:32:42.108Z,5.74
2022-11-06T06:35:09.380Z,5.73
2022-11-06T06:37:36.628Z,5.74
2022-11-06T06:40:04.370Z,5.75
2022-11-06T06:42:32.307Z,5.81
2022-11-06T06:44:59.063Z,5.84
2022-11-06T06:47:25.896Z,5.86
2022-11-06T06:49:52.639Z,5.91
2022-11-06T06:52:19.362Z,5.96
2022-11-06T06:54:46.078Z,6.04
2022-11-06T06:57:12.876Z,6.10
2022-11-06T06:59:39.592Z,6.16
2022-11-06T07:02:06.515Z,6.21
2022-11-06T07:04:33.374Z,6.28
2022-11-06T07:07:00.145Z,6.32
2022-11-06T07:09:31.039Z,6.36
2022-11-06T07:11:58.525Z,6.45
2022-11-06T07:14:25.423Z,6.52
2022-11-06T07:16:54.011Z,6.57
2022-11-06T07:19:21.163Z,6.61
2022-11-06T07:21:51.563Z,6.66
2022-11-06T07:24:18.584Z,6.72
2022-11-06T07:26:45.334Z,6.78
2022-11-06T07:29:12.194Z,6.84
2022-11-06T07:31:39.066Z,6.89
2022-11-06T07:34:06.707Z,6.95
2022-11-06T07:36:35.769Z,7.00
2022-11-06T07:39:02.941Z,7.05
2022-11-06T07:41:29.688Z,7.12
2022-11-06T07:43:56.387Z,7.26
2022-11-06T07:46:23.186Z,7.43
2022-11-06T07:48:50.058Z,7.54
2022-11-06T07:51:16.997Z,7.62
2022-11-06T07:53:43.817Z,7.72
2022-11-06T07:56:11.419Z,7.79
2022-11-06T07:58:38.378Z,7.82
2022-11-06T08:01:06.147Z,7.87
2022-11-06T08:03:33.008Z,7.93
2022-11-06T08:06:03.166Z,7.99
2022-11-06T08:08:29.930Z,8.08
2022-11-06T08:11:01.049Z,8.14
2022-11-06T08:13:27.854Z,8.18
2022-11-06T08:15:54.858Z,8.22
2022-11-06T08:18:21.631Z,8.24
2022-11-06T08:20:48.904Z,8.25
2022-11-06T08:23:15.691Z,8.29
2022-11-06T08:25:42.557Z,8.32
2022-11-06T08:28:09.420Z,8.34
2022-11-06T08:30:36.342Z,8.36
2022-11-06T08:33:05.893Z,8.41
2022-11-06T08:35:34.722Z,8.44
2022-11-06T08:38:01.565Z,8.46
2022-11-06T08:40:31.198Z,8.51
2022-11-06T08:43:08.164Z,8.53
2022-11-06T08:45:42.205Z,8.53
2022-11-06T08:48:10.101Z,8.62
2022-11-06T08:50:39.117Z,8.66
2022-11-06T08:53:07.113Z,8.75
2022-11-06T08:55:36.443Z,8.73
2022-11-06T08:58:04.200Z,8.76
2022-11-06T09:00:31.544Z,8.77
2022-11-06T09:03:03.742Z,8.79
2022-11-06T09:05:31.743Z,8.88
2022-11-06T09:07:59.516Z,8.96
2022-11-06T09:10:28.209Z,9.01
2022-11-06T09:12:55.010Z,9.05
2022-11-06T09:15:21.919Z,9.06
2022-11-06T09:17:51.103Z,9.09
2022-11-06T09:20:20.968Z,9.15
2022-11-06T09:22:48.166Z,9.23
2022-11-06T09:25:16.352Z,9.24
2022-11-06T09:27:47.458Z,9.27
2022-11-06T09:30:17.612Z,9.35
2022-11-06T09:32:50.140Z,9.31
2022-11-06T09:35:17.109Z,9.32
2022-11-06T09:37:44.526Z,9.36
2022-11-06T09:40:24.955Z,9.42
2022-11-06T09:43:12.423Z,9.44
2022-11-06T09:45:40.310Z,9.50
2022-11-06T09:48:18.132Z,9.56
2022-11-06T09:50:59.873Z,9.64
2022-11-06T09:53:37.963Z,9.63
2022-11-06T09:56:06.688Z,9.62
2022-11-06T09:58:38.236Z,9.76
2022-11-06T10:01:24.630Z,9.89
2022-11-06T10:04:02.571Z,9.83
2022-11-06T10:06:29.962Z,9.87
2022-11-06T10:09:02.181Z,9.91
2022-11-06T10:11:41.307Z,9.97
2022-11-06T10:14:47.975Z,9.99
2022-11-06T10:17:32.604Z,10.02
2022-11-06T10:20:25.402Z,9.96
2022-11-06T10:23:13.206Z,10.07
2022-11-06T10:26:04.026Z,10.19
2022-11-06T10:28:52.726Z,10.18
2022-11-06T10:31:38.618Z,10.20
2022-11-06T10:34:21.027Z,10.17
2022-11-06T10:36:50.645Z,10.15
2022-11-06T10:39:22.627Z,10.12
2022-11-06T10:41:56.520Z,10.11
2022-11-06T10:44:31.888Z,10.12
2022-11-06T10:47:06.751Z,10.14
2022-11-06T10:49:44.996Z,10.21
2022-11-06T10:52:21.170Z,10.18
2022-11-06T10:55:03.051Z,10.15
2022-11-06T10:57:49.718Z,10.20
2022-11-06T11:00:16.950Z,10.39
2022-11-06T11:02:52.000Z,10.36
2022-11-06T11:05:24.619Z,10.37
2022-11-06T11:07:51.899Z,10.46
2022-11-06T11:10:26.409Z,10.48
2022-11-06T11:12:56.000Z,10.50
2022-11-06T11:15:25.895Z,10.51
2022-11-06T11:18:19.777Z,10.64
2022-11-06T11:21:03.923Z,10.66
2022-11-06T11:23:30.988Z,10.56
2022-11-06T11:26:27.001Z,10.62
2022-11-06T11:29:00.498Z,10.61
2022-11-06T11:31:33.366Z,10.67
2022-11-06T11:34:03.557Z,10.72
2022-11-06T11:36:58.660Z,10.72
2022-11-06T11:39:43.717Z,10.74
2022-11-06T11:42:30.956Z,10.63
2022-11-06T11:45:10.314Z,10.68
2022-11-06T11:47:39.292Z,10.70
2022-11-06T11:50:27.797Z,10.75
2022-11-06T11:53:19.620Z,10.71
2022-11-06T11:55:50.030Z,10.71
2022-11-06T11:58:37.904Z,10.74
2022-11-06T12:01:06.186Z,10.71
2022-11-06T12:03:46.699Z,10.79
2022-11-06T12:06:15.891Z,10.81
2022-11-06T12:08:49.770Z,10.82
2022-11-06T12:11:29.751Z,10.84
2022-11-06T12:14:21.890Z,10.87
2022-11-06T12:16:51.718Z,10.86
2022-11-06T12:19:21.495Z,10.95
2022-11-06T12:21:56.233Z,10.97
2022-11-06T12:24:45.921Z,11.05
2022-11-06T12:27:35.059Z,11.06
2022-11-06T12:30:06.515Z,10.99
2022-11-06T12:32:48.811Z,10.95
2022-11-06T12:35:37.607Z,10.87
2022-11-06T12:38:15.543Z,10.87
2022-11-06T12:40:54.498Z,10.89
2022-11-06T12:43:39.671Z,10.93
2022-11-06T12:46:35.070Z,10.92
2022-11-06T12:49:19.095Z,11.00
2022-11-06T12:52:05.087Z,11.02
2022-11-06T12:55:10.243Z,11.05
2022-11-06T12:58:10.837Z,10.93
2022-11-06T13:01:01.905Z,10.94
2022-11-06T13:04:00.702Z,10.98
2022-11-06T13:06:46.758Z,10.99
2022-11-06T13:09:32.003Z,10.91
2022-11-06T13:12:28.994Z,10.91
2022-11-06T13:15:02.187Z,10.88
2022-11-06T13:17:35.647Z,10.90
2022-11-06T13:20:16.728Z,10.94
2022-11-06T13:22:56.273Z,11.03
2022-11-06T13:26:17.184Z,10.95
2022-11-06T13:28:55.802Z,10.87
2022-11-06T13:31:31.254Z,10.83
2022-11-06T13:34:01.902Z,10.82
2022-11-06T13:36:32.358Z,10.78
2022-11-06T13:39:28.959Z,10.85
2022-11-06T13:41:58.112Z,10.82
2022-11-06T13:44:26.439Z,10.74
2022-11-06T13:47:06.617Z,10.72
2022-11-06T13:49:41.124Z,10.67
2022-11-06T13:52:21.799Z,10.65
2022-11-06T13:55:11.075Z,10.62
2022-11-06T13:57:52.997Z,10.59
2022-11-06T14:00:36.280Z,10.58
2022-11-06T14:03:25.295Z,10.51
2022-11-06T14:05:53.586Z,10.51
2022-11-06T14:08:45.780Z,10.51
2022-11-06T14:11:18.158Z,10.49
2022-11-06T14:14:02.770Z,10.47
2022-11-06T14:16:37.336Z,10.45
2022-11-06T14:19:22.500Z,10.42
2022-11-06T14:21:50.390Z,10.38
2022-11-06T14:24:31.050Z,10.36
2022-11-06T14:26:59.332Z,10.33
2022-11-06T14:29:26.542Z,10.27
2022-11-06T14:32:32.212Z,10.27
2022-11-06T14:35:28.657Z,10.24
2022-11-06T14:38:10.714Z,10.22
2022-11-06T14:40:40.234Z,10.17
2022-11-06T14:43:20.592Z,10.16
2022-11-06T14:46:02.198Z,10.13
2022-11-06T14:48:43.427Z,10.09
2022-11-06T14:51:13.599Z,10.10
2022-11-06T14:53:56.313Z,10.04
2022-11-06T14:56:28.972Z,9.97
2022-11-06T14:59:12.566Z,10.01
2022-11-06T15:01:40.648Z,9.98
2022-11-06T15:04:14.527Z,9.89
2022-11-06T15:06:50.825Z,9.78
2022-11-06T15:09:23.999Z,9.68
2022-11-06T15:11:52.558Z,9.64
2022-11-06T15:14:20.027Z,9.60
2022-11-06T15:16:56.051Z,9.58
2022-11-06T15:19:26.994Z,9.50
2022-11-06T15:22:06.061Z,9.40
2022-11-06T15:24:44.760Z,9.37
2022-11-06T15:27:16.359Z,9.37
2022-11-06T15:29:46.177Z,9.43
2022-11-06T15:32:20.207Z,9.33
2022-11-06T15:34:59.961Z,9.24
2022-11-06T15:37:32.823Z,9.14
2022-11-06T15:40:01.853Z,8.99
2022-11-06T15:42:34.823Z,8.93
2022-11-06T15:45:08.141Z,9.07
2022-11-06T15:47:35.890Z,9.00
2022-11-06T15:50:24.939Z,8.88
2022-11-06T15:52:52.272Z,8.90
2022-11-06T15:55:32.957Z,8.73
2022-11-06T15:58:30.806Z,8.72
2022-11-06T16:01:01.288Z,8.67
2022-11-06T16:03:31.644Z,8.66
2022-11-06T16:06:03.176Z,8.70
2022-11-06T16:08:31.778Z,8.70
2022-11-06T16:11:00.519Z,8.60
2022-11-06T16:13:29.339Z,8.50
2022-11-06T16:15:59.577Z,8.29
2022-11-06T16:18:46.494Z,8.30
2022-11-06T16:21:21.507Z,8.26
2022-11-06T16:24:12.719Z,8.23
2022-11-06T16:26:46.451Z,8.03
2022-11-06T16:29:21.513Z,7.97
2022-11-06T16:31:58.899Z,8.01
2022-11-06T16:34:32.662Z,7.96
2022-11-06T16:37:01.623Z,7.97
2022-11-06T16:39:48.756Z,7.98
2022-11-06T16:42:23.082Z,8.15
2022-11-06T16:45:21.274Z,8.06
2022-11-06T16:48:07.087Z,8.11
2022-11-06T16:50:48.895Z,8.04
2022-11-06T16:53:25.507Z,7.87
2022-11-06T16:55:59.648Z,7.75
2022-11-06T16:58:29.357Z,7.77
2022-11-06T17:01:03.470Z,7.63
2022-11-06T17:03:47.837Z,7.54
2022-11-06T17:06:22.951Z,7.48
2022-11-06T17:09:08.803Z,7.36
2022-11-06T17:11:37.862Z,7.35
2022-11-06T17:14:17.802Z,7.27
2022-11-06T17:16:54.561Z,7.17
2022-11-06T17:19:23.522Z,7.19
2022-11-06T17:21:52.275Z,7.06
2022-11-06T17:24:36.897Z,7.10
2022-11-06T17:27:18.396Z,6.93
2022-11-06T17:29:48.027Z,6.90
2022-11-06T17:32:15.177Z,6.61
2022-11-06T17:34:42.896Z,6.52
2022-11-06T17:37:12.005Z,6.62
2022-11-06T17:39:43.679Z,6.60
2022-11-06T17:42:12.144Z,6.41
2022-11-06T17:44:39.616Z,6.38
2022-11-06T17:47:09.307Z,6.52
2022-11-06T17:49:36.628Z,6.55
2022-11-06T17:52:04.688Z,6.52
2022-11-06T17:54:34.439Z,6.51
2022-11-06T17:57:04.570Z,6.47
2022-11-06T17:59:33.776Z,6.40
2022-11-06T18:02:02.240Z,6.22
2022-11-06T18:04:31.159Z,6.42
2022-11-06T18:06:58.898Z,6.56
2022-11-06T18:09:27.288Z,6.36
2022-11-06T18:11:55.830Z,6.51
2022-11-06T18:14:25.942Z,6.54
2022-11-06T18:16:55.435Z,6.17
2022-11-06T18:19:24.782Z,5.90
2022-11-06T18:21:55.342Z,5.97
2022-11-06T18:24:23.405Z,6.09
2022-11-06T18:26:51.168Z,5.98
2022-11-06T18:29:19.054Z,5.96
2022-11-06T18:31:46.467Z,5.90
2022-11-06T18:34:20.472Z,5.98
2022-11-06T18:36:51.943Z,5.97
2022-11-06T18:39:21.371Z,5.98
2022-11-06T18:41:51.290Z,5.78
2022-11-06T18:44:20.362Z,5.97
2022-11-06T18:46:49.947Z,5.88
2022-11-06T18:49:17.730Z,5.90
2022-11-06T18:51:45.207Z,5.84
2022-11-06T18:54:14.761Z,5.81
2022-11-06T18:56:43.022Z,5.76
2022-11-06T18:59:16.793Z,5.91
2022-11-06T19:01:44.626Z,5.82
2022-11-06T19:04:14.862Z,5.81
2022-11-06T19:06:42.651Z,5.71
2022-11-06T19:09:11.422Z,5.84
2022-11-06T19:11:41.013Z,5.72
2022-11-06T19:14:11.513Z,5.74
2022-11-06T19:16:39.597Z,5.70
2022-11-06T19:19:07.365Z,5.63
2022-11-06T19:21:35.301Z,5.61
2022-11-06T19:24:06.134Z,5.69
2022-11-06T19:26:35.780Z,5.62
2022-11-06T19:29:09.938Z,5.55
2022-11-06T19:31:40.430Z,5.36
2022-11-06T19:34:09.520Z,5.35
2022-11-06T19:36:37.537Z,5.37
2022-11-06T19:39:07.710Z,5.43
2022-11-06T19:41:35.667Z,5.50
2022-11-06T19:44:03.487Z,5.36
2022-11-06T19:46:35.965Z,5.28
2022-11-06T19:49:08.842Z,5.37
2022-11-06T19:51:37.248Z,5.33
2022-11-06T19:54:06.979Z,5.30
2022-11-06T19:56:35.856Z,5.33
2022-11-06T19:59:03.640Z,5.17
2022-11-06T20:01:32.211Z,5.33
2022-11-06T20:04:09.524Z,5.23
2022-11-06T20:06:39.366Z,5.23
2022-11-06T20:09:08.547Z,5.26
2022-11-06T20:11:38.191Z,5.38
2022-11-06T20:14:05.385Z,5.48
2022-11-06T20:16:33.893Z,5.34
2022-11-06T20:19:01.806Z,5.40
2022-11-06T20:21:31.579Z,5.47
2022-11-06T20:23:59.232Z,5.47
2022-11-06T20:26:29.656Z,5.44
2022-11-06T20:28:59.623Z,5.52
2022-11-06T20:31:29.275Z,5.57
2022-11-06T20:33:59.672Z,5.40
2022-11-06T20:36:31.324Z,5.43
2022-11-06T20:39:01.174Z,5.40
2022-11-06T20:41:31.054Z,5.52
2022-11-06T20:43:59.092Z,5.42
2022-11-06T20:46:26.827Z,5.53
2022-11-06T20:48:54.253Z,5.49
2022-11-06T20:51:25.577Z,5.41
2022-11-06T20:53:53.524Z,5.51
2022-11-06T20:56:23.375Z,5.50
2022-11-06T20:58:51.335Z,5.55
2022-11-06T21:01:22.687Z,5.55
2022-11-06T21:03:52.047Z,5.28
2022-11-06T21:06:21.090Z,5.17
2022-11-06T21:08:49.128Z,5.27
2022-11-06T21:11:19.984Z,5.20
2022-11-06T21:13:50.137Z,5.14
2022-11-06T21:16:30.297Z,5.16
2022-11-06T21:18:59.614Z,4.94
2022-11-06T21:21:29.971Z,4.85
2022-11-06T21:23:58.026Z,5.02
2022-11-06T21:26:28.081Z,5.12
2022-11-06T21:28:56.349Z,5.08
2022-11-06T21:31:26.367Z,5.04
2022-11-06T21:33:56.248Z,4.83
2022-11-06T21:36:25.821Z,4.74
2022-11-06T21:38:54.032Z,4.83
2022-11-06T21:41:23.137Z,4.96
2022-11-06T21:43:51.268Z,4.97
2022-11-06T21:46:19.489Z,4.99
2022-11-06T21:48:48.871Z,5.03
2022-11-06T21:51:22.442Z,4.71
2022-11-06T21:53:50.392Z,4.66
2022-11-06T21:56:21.030Z,4.79
2022-11-06T21:58:54.894Z,4.84
2022-11-06T22:01:23.206Z,4.89
2022-11-06T22:03:50.944Z,4.70
2022-11-06T22:06:20.423Z,4.72
2022-11-06T22:08:48.616Z,4.72
2022-11-06T22:11:18.353Z,4.74
2022-11-06T22:13:46.153Z,4.86
2022-11-06T22:16:15.804Z,4.66
2022-11-06T22:18:42.750Z,4.63
2022-11-06T22:21:15.109Z,4.60
2022-11-06T22:23:42.734Z,4.52
2022-11-06T22:26:13.041Z,4.38
2022-11-06T22:28:40.333Z,4.20
2022-11-06T22:31:08.706Z,4.29
2022-11-06T22:33:36.485Z,4.28
2022-11-06T22:36:07.820Z,4.21
2022-11-06T22:38:37.098Z,4.24
2022-11-06T22:41:06.007Z,4.20
2022-11-06T22:43:34.682Z,4.24
2022-11-06T22:46:08.103Z,4.18
2022-11-06T22:48:35.478Z,4.05
2022-11-06T22:51:17.694Z,4.29
2022-11-06T22:53:46.080Z,4.08
2022-11-06T22:56:12.954Z,4.26
2022-11-06T22:58:40.546Z,4.39
2022-11-06T23:01:08.910Z,4.43
2022-11-06T23:03:36.501Z,4.47
2022-11-06T23:06:08.276Z,4.48
2022-11-06T23:08:38.846Z,4.35
2022-11-06T23:11:09.138Z,4.33
2022-11-06T23:13:36.649Z,4.46
2022-11-06T23:16:12.593Z,4.20
2022-11-06T23:18:39.920Z,3.94
2022-11-06T23:21:18.733Z,4.08
2022-11-06T23:23:46.327Z,4.02
2022-11-06T23:26:19.892Z,4.24
2022-11-06T23:28:46.902Z,4.32
2022-11-06T23:31:15.399Z,4.21
2022-11-06T23:33:43.788Z,3.99
2022-11-06T23:36:13.092Z,4.15
2022-11-06T23:38:40.871Z,4.27
2022-11-06T23:41:08.793Z,4.28
2022-11-06T23:43:35.666Z,4.33
2022-11-06T23:46:02.912Z,4.32
2022-11-06T23:48:29.747Z,4.12
2022-11-06T23:50:59.923Z,4.01
2022-11-06T23:53:26.754Z,3.76
2022-11-06T23:55:53.931Z,3.85
2022-11-06T23:58:20.751Z,4.08
